TimeEST,TemperatureF,Dew PointF,Humidity,Sea Level PressureIn,VisibilityMPH,Wind Direction,Wind SpeedMPH,Gust SpeedMPH,PrecipitationIn,Events,Conditions,WindDirDegrees,DateUTC
12:53 AM,17.1,12.0,81,30.23,10.0,WSW,4.6,-,N/A,,Clear,240,2012-11-07 05:53:00
1:53 AM,18.0,12.0,78,30.24,10.0,West,5.8,-,N/A,,Clear,270,2012-11-07 06:53:00
2:53 AM,18.0,12.9,81,30.25,10.0,West,6.9,-,N/A,,Clear,280,2012-11-07 07:53:00
3:53 AM,19.0,12.0,74,30.25,10.0,NW,4.6,-,N/A,,Clear,310,2012-11-07 08:53:00
4:53 AM,18.0,12.0,78,30.27,10.0,WSW,3.5,-,N/A,,Clear,240,2012-11-07 09:53:00
5:53 AM,12.9,10.9,92,30.29,10.0,NW,4.6,-,N/A,,Clear,320,2012-11-07 10:53:00
6:53 AM,15.1,12.0,88,30.33,10.0,SSW,6.9,-,N/A,,Clear,210,2012-11-07 11:53:00
7:53 AM,19.0,14.0,81,30.32,10.0,Calm,Calm,-,N/A,,Clear,0,2012-11-07 12:53:00
8:53 AM,25.0,16.0,69,30.32,10.0,North,8.1,-,N/A,,Clear,360,2012-11-07 13:53:00
9:53 AM,26.1,16.0,66,30.30,10.0,North,11.5,-,N/A,,Clear,360,2012-11-07 14:53:00
10:53 AM,28.9,17.1,61,30.28,10.0,NNW,9.2,17.3,N/A,,Clear,340,2012-11-07 15:53:00
11:53 AM,33.1,17.1,52,30.25,10.0,NNW,8.1,-,N/A,,Clear,340,2012-11-07 16:53:00
12:53 PM,34.0,18.0,52,30.22,10.0,NNW,8.1,-,N/A,,Clear,340,2012-11-07 17:53:00
1:53 PM,35.1,18.0,50,30.21,10.0,NNE,10.4,-,N/A,,Clear,20,2012-11-07 18:53:00
2:53 PM,36.0,19.0,50,30.22,10.0,North,6.9,-,N/A,,Clear,350,2012-11-07 19:53:00
3:53 PM,33.1,18.0,54,30.21,10.0,North,4.6,-,N/A,,Clear,10,2012-11-07 20:53:00
4:53 PM,30.0,18.0,61,30.21,10.0,NNE,6.9,-,N/A,,Clear,20,2012-11-07 21:53:00
5:53 PM,28.9,19.0,67,30.19,10.0,NNE,9.2,-,N/A,,Clear,20,2012-11-07 22:53:00
6:53 PM,28.0,19.0,69,30.19,10.0,North,9.2,-,N/A,,Clear,10,2012-11-07 23:53:00
7:53 PM,27.0,18.0,69,30.19,10.0,NNE,8.1,-,N/A,,Clear,20,2012-11-08 00:53:00
8:53 PM,27.0,19.0,72,30.18,10.0,NNE,8.1,16.1,N/A,,Clear,30,2012-11-08 01:53:00
9:32 PM,28.4,21.2,74,30.14,10.0,NE,10.4,-,N/A,,Mostly Cloudy,50,2012-11-08 02:32:00
9:53 PM,28.9,21.0,72,30.18,10.0,NE,11.5,-,N/A,,Overcast,50,2012-11-08 02:53:00
10:53 PM,28.0,21.0,75,30.15,10.0,NNE,12.7,-,N/A,,Overcast,20,2012-11-08 03:53:00
11:53 PM,28.9,21.9,75,30.15,10.0,NE,6.9,-,N/A,,Overcast,40,2012-11-08 04:53:00